Time;durP1;ratioP1;P1;durP2;ratioP2;P2;SDS_P1;SDS_P2;PMS_P1;PMS_P2;Temp;Humidity;BMP_temperature;BMP_pressure;BME280_temperature;BME280_humidity;BME280_pressure;Samples;Min_cycle;Max_cycle;Signal;HPM_P1;HPM_P2
2023/12/26 00:01:49;;;;;;;2.55;1.08;;;;;;;8.24;100.00;100116.75;4994205;28;20049;-72
2023/12/26 00:04:35;;;;;;;2.00;1.30;;;;;;;8.24;100.00;100125.50;4998625;28;20062;-74
2023/12/26 00:07:23;;;;;;;1.83;0.90;;;;;;;8.27;100.00;100129.78;5000601;28;20046;-73
2023/12/26 00:10:08;;;;;;;1.35;0.80;;;;;;;8.28;100.00;100129.72;4996800;28;20050;-73
2023/12/26 00:12:59;;;;;;;4.18;0.95;;;;;;;8.30;100.00;100134.91;4995356;28;20059;-72
2023/12/26 00:15:45;;;;;;;1.10;0.80;;;;;;;8.33;100.00;100131.28;4998207;28;20088;-72
2023/12/26 00:18:30;;;;;;;3.58;0.90;;;;;;;8.32;100.00;100127.78;4996435;28;21250;-73
2023/12/26 00:21:16;;;;;;;1.30;0.98;;;;;;;8.33;100.00;100126.84;4995202;28;20064;-73
2023/12/26 00:24:02;;;;;;;2.35;1.00;;;;;;;8.33;100.00;100126.84;4994834;28;20054;-73
2023/12/26 00:26:47;;;;;;;4.22;1.10;;;;;;;8.33;100.00;100132.13;4995823;28;20081;-72
2023/12/26 00:29:34;;;;;;;2.03;1.08;;;;;;;8.32;100.00;100125.16;4994694;28;22203;-73
2023/12/26 00:32:20;;;;;;;3.45;1.10;;;;;;;8.29;100.00;100127.94;4995318;28;20060;-73
2023/12/26 00:35:05;;;;;;;4.18;1.10;;;;;;;8.29;100.00;100131.41;4998218;28;20038;-73
2023/12/26 00:37:51;;;;;;;2.22;1.02;;;;;;;8.27;100.00;100135.03;5046386;23;20045;-75
2023/12/26 00:40:41;;;;;;;1.80;0.98;;;;;;;8.28;100.00;100134.13;4977507;28;20050;-74
2023/12/26 00:43:26;;;;;;;4.60;1.23;;;;;;;8.27;100.00;100138.56;4993776;28;20072;-73
2023/12/26 00:46:12;;;;;;;4.72;1.00;;;;;;;8.27;100.00;100133.28;4985330;28;20066;-75
2023/12/26 00:48:57;;;;;;;9.52;2.22;;;;;;;8.26;100.00;100130.72;4995141;28;20049;-74
2023/12/26 00:51:42;;;;;;;2.35;0.88;;;;;;;8.24;100.00;100130.75;4975920;28;20049;-73
2023/12/26 00:54:28;;;;;;;5.28;1.00;;;;;;;8.23;100.00;100136.97;4994840;28;20080;-74
2023/12/26 00:57:13;;;;;;;4.63;0.80;;;;;;;8.21;100.00;100144.09;4990912;28;20052;-74
2023/12/26 00:59:59;;;;;;;3.78;1.00;;;;;;;8.19;100.00;100143.34;4992717;28;20053;-75
2023/12/26 01:02:44;;;;;;;9.35;1.20;;;;;;;8.15;100.00;100145.25;4995162;28;20054;-74
2023/12/26 01:05:30;;;;;;;6.85;1.08;;;;;;;8.14;100.00;100147.97;4993387;28;20065;-75
2023/12/26 01:08:16;;;;;;;7.07;0.98;;;;;;;8.10;100.00;100149.88;4988800;28;20057;-74
2023/12/26 01:11:02;;;;;;;6.28;1.38;;;;;;;8.07;100.00;100151.81;4998999;28;20058;-73
2023/12/26 01:13:47;;;;;;;8.43;1.38;;;;;;;8.05;100.00;100167.69;4980781;28;20686;-75
2023/12/26 01:16:33;;;;;;;10.68;1.13;;;;;;;8.02;100.00;100181.88;4978638;28;20042;-74
2023/12/26 01:19:18;;;;;;;6.50;1.10;;;;;;;8.02;100.00;100191.56;4981228;28;20134;-74
2023/12/26 01:22:04;;;;;;;8.55;1.30;;;;;;;7.99;100.00;100179.38;4980342;28;20045;-74
2023/12/26 01:24:53;;;;;;;7.53;1.50;;;;;;;7.99;100.00;100181.16;4992401;28;20049;-74
2023/12/26 01:27:38;;;;;;;6.38;1.10;;;;;;;7.97;100.00;100189.16;4993481;28;20116;-74
2023/12/26 01:30:24;;;;;;;10.10;1.60;;;;;;;7.96;100.00;100186.56;4979417;28;20131;-74
2023/12/26 01:33:10;;;;;;;4.78;1.23;;;;;;;7.93;100.00;100182.28;4977093;28;20056;-74
2023/12/26 01:35:55;;;;;;;3.33;1.05;;;;;;;7.93;100.00;100191.97;4991698;28;20413;-74
2023/12/26 01:38:41;;;;;;;9.95;1.48;;;;;;;7.92;100.00;100191.13;4992560;28;20160;-75
2023/12/26 01:41:27;;;;;;;4.80;1.00;;;;;;;7.93;100.00;100203.38;5011528;28;20517;-78
2023/12/26 01:44:13;;;;;;;10.40;1.40;;;;;;;7.94;100.00;100207.72;4988566;28;20065;-75
2023/12/26 01:46:59;;;;;;;4.60;1.30;;;;;;;7.96;100.00;100212.94;5001474;28;20084;-74
2023/12/26 01:49:44;;;;;;;5.57;1.05;;;;;;;7.96;100.00;100219.03;4988510;28;20075;-74
2023/12/26 01:52:30;;;;;;;7.78;1.65;;;;;;;7.97;100.00;100220.78;4990597;28;20513;-75
2023/12/26 01:55:19;;;;;;;7.25;1.92;;;;;;;7.97;100.00;100225.19;5011808;28;20045;-74
2023/12/26 01:58:05;;;;;;;3.47;1.20;;;;;;;7.96;100.00;100219.03;5004415;28;20046;-75
2023/12/26 02:00:51;;;;;;;5.15;1.58;;;;;;;7.95;100.00;100224.41;4991703;28;20646;-75
2023/12/26 02:03:36;;;;;;;6.30;1.42;;;;;;;7.94;100.00;100227.94;4993080;28;20053;-74
2023/12/26 02:06:22;;;;;;;8.43;1.30;;;;;;;7.91;100.00;100241.25;4988691;28;20070;-74
2023/12/26 02:09:10;;;;;;;11.52;1.85;;;;;;;7.86;100.00;100229.13;5006893;28;20143;-75
2023/12/26 02:11:56;;;;;;;6.93;1.40;;;;;;;7.83;100.00;100238.97;4995041;28;20053;-74
2023/12/26 02:14:43;;;;;;;9.40;1.20;;;;;;;7.78;100.00;100240.97;4988911;28;20145;-75
2023/12/26 02:17:29;;;;;;;6.65;1.30;;;;;;;7.75;100.00;100257.75;5006888;28;20051;-75
2023/12/26 02:20:15;;;;;;;4.90;1.20;;;;;;;7.74;100.00;100258.69;4995531;28;20178;-75
2023/12/26 02:23:00;;;;;;;5.30;1.20;;;;;;;7.70;100.00;100254.44;5008706;28;20049;-75
2023/12/26 02:25:45;;;;;;;6.63;1.45;;;;;;;7.66;100.00;100260.75;4998703;28;20064;-75
2023/12/26 02:28:32;;;;;;;4.97;1.33;;;;;;;7.62;100.00;100265.31;4992774;28;20053;-75
2023/12/26 02:31:18;;;;;;;7.88;1.50;;;;;;;7.60;100.00;100261.91;4992507;28;20054;-74
2023/12/26 02:34:04;;;;;;;4.80;1.33;;;;;;;7.61;100.00;100268.88;4993876;28;20103;-74
2023/12/26 02:36:50;;;;;;;9.50;1.30;;;;;;;7.61;100.00;100282.03;4998527;28;20132;-74
2023/12/26 02:39:35;;;;;;;7.55;1.10;;;;;;;7.58;100.00;100269.84;5014051;28;20085;-74
2023/12/26 02:42:24;;;;;;;7.53;1.15;;;;;;;7.56;100.00;100278.75;4994039;28;20116;-74
2023/12/26 02:45:10;;;;;;;6.78;1.70;;;;;;;7.54;100.00;100280.59;5012057;28;20204;-75
2023/12/26 02:47:58;;;;;;;6.78;1.63;;;;;;;7.51;100.00;100291.25;5013594;28;20108;-75
2023/12/26 02:50:44;;;;;;;8.52;1.33;;;;;;;7.48;100.00;100282.56;5003119;28;20037;-75
2023/12/26 02:53:30;;;;;;;7.95;1.40;;;;;;;7.47;100.00;100291.38;4988450;28;20049;-74
2023/12/26 02:56:16;;;;;;;5.93;1.20;;;;;;;7.45;100.00;100280.06;5000517;28;20053;-74
2023/12/26 02:59:02;;;;;;;5.72;1.13;;;;;;;7.41;100.00;100307.44;5016772;28;20171;-75
2023/12/26 03:01:48;;;;;;;5.80;1.33;;;;;;;7.37;100.00;100299.72;5015642;28;20041;-75
2023/12/26 03:04:34;;;;;;;5.28;1.10;;;;;;;7.32;100.00;100303.38;5014429;28;20041;-75
2023/12/26 03:07:20;;;;;;;8.40;1.75;;;;;;;7.25;100.00;100304.56;5006672;28;20045;-74
2023/12/26 03:10:09;;;;;;;7.72;1.30;;;;;;;7.18;100.00;100322.38;5014358;28;20141;-75
2023/12/26 03:12:54;;;;;;;8.07;1.30;;;;;;;7.13;100.00;100320.88;5009102;28;20064;-74
2023/12/26 03:15:39;;;;;;;7.25;1.50;;;;;;;7.06;100.00;100322.88;4997822;28;20135;-75
2023/12/26 03:18:25;;;;;;;5.43;1.20;;;;;;;7.00;100.00;100339.75;5012236;28;20057;-75
2023/12/26 03:21:10;;;;;;;7.28;1.25;;;;;;;6.92;100.00;100340.03;5010829;28;20389;-75
2023/12/26 03:23:56;;;;;;;6.13;1.40;;;;;;;6.87;100.00;100342.00;5012430;28;20054;-75
2023/12/26 03:26:41;;;;;;;10.65;1.30;;;;;;;6.84;100.00;100341.25;4999059;28;20057;-75
2023/12/26 03:29:27;;;;;;;5.53;1.25;;;;;;;6.81;100.00;100350.13;4998264;28;20087;-75
2023/12/26 03:32:12;;;;;;;6.43;1.35;;;;;;;6.78;100.00;100350.25;5008984;28;20049;-75
2023/12/26 03:34:58;;;;;;;8.25;1.70;;;;;;;6.71;100.00;100354.03;4986948;28;20060;-75
2023/12/26 03:37:43;;;;;;;10.98;1.77;;;;;;;6.65;100.00;100361.22;5006721;28;20061;-73
2023/12/26 03:40:29;;;;;;;6.25;1.52;;;;;;;6.62;100.00;100363.97;5012935;28;20060;-74
2023/12/26 03:43:16;;;;;;;11.60;2.05;;;;;;;6.60;100.00;100378.09;5011809;28;20469;-75
2023/12/26 03:46:02;;;;;;;7.10;1.60;;;;;;;6.57;100.00;100386.94;5012042;28;20049;-75
2023/12/26 03:48:48;;;;;;;5.95;1.55;;;;;;;6.55;100.00;100390.53;4986861;28;20053;-75
2023/12/26 03:51:33;;;;;;;6.50;1.48;;;;;;;6.51;100.00;100387.16;5002050;28;20100;-75
2023/12/26 03:54:21;;;;;;;8.50;1.48;;;;;;;6.44;100.00;100390.94;5012554;28;20064;-73
2023/12/26 03:57:07;;;;;;;8.20;1.50;;;;;;;6.38;100.00;100389.38;5008108;28;20042;-75
2023/12/26 03:59:52;;;;;;;8.57;1.60;;;;;;;6.35;100.00;100385.09;5006175;28;20088;-75
2023/12/26 04:02:40;;;;;;;10.57;1.60;;;;;;;6.32;100.00;100389.59;4986001;28;20072;-75
2023/12/26 04:05:25;;;;;;;6.80;1.30;;;;;;;6.29;100.00;100394.94;5001276;28;20076;-75
2023/12/26 04:08:11;;;;;;;9.68;1.90;;;;;;;6.27;100.00;100396.78;4994298;28;20046;-76
2023/12/26 04:10:57;;;;;;;10.25;1.95;;;;;;;6.27;100.00;100400.28;5000107;28;20144;-74
2023/12/26 04:13:42;;;;;;;9.93;1.80;;;;;;;6.23;100.00;100390.78;5001048;28;20061;-74
2023/12/26 04:16:28;;;;;;;8.93;1.35;;;;;;;6.24;100.00;100403.88;5019633;28;20075;-75
2023/12/26 04:19:13;;;;;;;6.63;1.45;;;;;;;6.23;100.00;100399.50;5021870;28;20056;-75
2023/12/26 04:21:58;;;;;;;7.85;1.70;;;;;;;6.22;100.00;100405.66;4999830;28;20105;-75
2023/12/26 04:24:44;;;;;;;10.55;1.50;;;;;;;6.20;100.00;100406.63;5016830;28;20053;-75
2023/12/26 04:27:29;;;;;;;10.50;1.40;;;;;;;6.18;100.00;100406.72;5017474;28;20131;-75
2023/12/26 04:30:15;;;;;;;5.32;1.33;;;;;;;6.18;100.00;100401.44;5001105;28;20042;-75
2023/12/26 04:33:01;;;;;;;6.88;1.42;;;;;;;6.19;100.00;100415.44;5013816;28;20069;-74
2023/12/26 04:35:46;;;;;;;9.10;1.30;;;;;;;6.17;100.00;100418.13;5005636;28;20082;-75
2023/12/26 04:38:32;;;;;;;5.90;1.30;;;;;;;6.18;100.00;100422.47;5016327;28;20069;-75
2023/12/26 04:41:20;;;;;;;7.50;1.15;;;;;;;6.19;100.00;100426.81;5020101;28;20862;-75
2023/12/26 04:44:05;;;;;;;8.02;1.55;;;;;;;6.21;100.00;100421.53;4995209;28;20073;-75
2023/12/26 04:46:51;;;;;;;6.40;1.25;;;;;;;6.18;100.00;100422.47;4999283;28;20053;-75
2023/12/26 04:49:37;;;;;;;6.43;1.30;;;;;;;6.22;100.00;100425.88;5020214;28;20073;-75
2023/12/26 04:52:22;;;;;;;8.80;1.52;;;;;;;6.26;100.00;100422.19;5012617;28;20123;-74
2023/12/26 04:55:08;;;;;;;4.78;1.20;;;;;;;6.32;100.00;100424.63;5017100;28;20053;-75
2023/12/26 04:57:53;;;;;;;6.97;1.40;;;;;;;6.39;100.00;100441.91;5012679;28;20080;-76
2023/12/26 05:00:39;;;;;;;7.18;1.60;;;;;;;6.43;100.00;100449.69;5014221;28;20097;-76
2023/12/26 05:03:24;;;;;;;7.97;1.48;;;;;;;6.45;100.00;100461.03;5015534;28;20053;-75
2023/12/26 05:06:10;;;;;;;3.75;1.17;;;;;;;6.51;100.00;100458.19;5005974;28;20073;-74
2023/12/26 05:08:56;;;;;;;8.20;2.15;;;;;;;6.56;100.00;100461.53;4999871;28;20077;-75
2023/12/26 05:11:41;;;;;;;10.27;1.65;;;;;;;6.60;100.00;100465.75;5009762;28;20065;-76
2023/12/26 05:14:26;;;;;;;4.82;2.03;;;;;;;6.69;100.00;100468.97;5016930;28;20255;-76
2023/12/26 05:17:13;;;;;;;4.85;1.30;;;;;;;6.74;100.00;100472.28;4987119;28;20139;-75
2023/12/26 05:20:00;;;;;;;6.78;1.33;;;;;;;6.78;100.00;100476.53;5003910;28;20076;-74
2023/12/26 05:22:45;;;;;;;5.22;1.30;;;;;;;6.83;100.00;100474.63;5007093;28;20132;-76
2023/12/26 05:25:31;;;;;;;7.30;1.27;;;;;;;6.89;100.00;100482.28;5006413;28;20444;-76
2023/12/26 05:28:16;;;;;;;3.42;1.40;;;;;;;6.92;100.00;100478.69;4995366;28;20556;-75
2023/12/26 05:31:03;;;;;;;8.00;1.42;;;;;;;6.95;100.00;100493.50;5012634;28;20046;-76
2023/12/26 05:33:48;;;;;;;5.85;1.55;;;;;;;6.93;100.00;100496.19;5010869;28;20044;-75
2023/12/26 05:36:33;;;;;;;6.97;1.33;;;;;;;6.96;100.00;100505.75;5000451;28;20169;-75
2023/12/26 05:39:19;;;;;;;8.95;1.48;;;;;;;6.96;100.00;100508.41;5015582;28;20054;-76
2023/12/26 05:42:05;;;;;;;8.05;1.40;;;;;;;6.96;100.00;100518.91;5012543;28;20535;-75
2023/12/26 05:44:50;;;;;;;10.30;1.60;;;;;;;6.95;100.00;100525.94;5010969;28;20057;-76
2023/12/26 05:47:35;;;;;;;7.05;1.63;;;;;;;6.93;100.00;100527.78;5002539;28;20045;-75
2023/12/26 05:50:21;;;;;;;9.18;1.80;;;;;;;6.95;100.00;100519.81;5015579;28;20053;-75
2023/12/26 05:53:06;;;;;;;11.23;1.45;;;;;;;6.93;100.00;100526.00;5008006;28;20169;-75
2023/12/26 05:55:52;;;;;;;10.10;2.03;;;;;;;6.91;100.00;100540.13;5005459;28;21319;-75
2023/12/26 05:58:39;;;;;;;8.57;1.50;;;;;;;6.86;100.00;100548.19;5010807;28;20473;-75
2023/12/26 06:01:24;;;;;;;6.78;2.00;;;;;;;6.77;100.00;100543.25;5010411;28;20045;-75
2023/12/26 06:04:10;;;;;;;7.03;1.50;;;;;;;6.71;100.00;100543.44;5015404;28;20049;-75
2023/12/26 06:06:55;;;;;;;6.80;1.45;;;;;;;6.64;100.00;100543.66;5014097;28;20084;-75
2023/12/26 06:09:41;;;;;;;6.65;1.70;;;;;;;6.60;100.00;100557.81;5002961;28;20053;-76
2023/12/26 06:12:28;;;;;;;6.00;1.02;;;;;;;6.55;100.00;100559.75;5013948;28;20072;-76
2023/12/26 06:15:13;;;;;;;9.35;1.52;;;;;;;6.50;100.00;100578.28;5014585;28;20076;-75
2023/12/26 06:17:59;;;;;;;6.20;1.40;;;;;;;6.45;100.00;100576.72;4996535;28;20082;-75
2023/12/26 06:20:44;;;;;;;11.63;1.60;;;;;;;6.41;100.00;100578.59;4997701;28;20081;-75
2023/12/26 06:23:31;;;;;;;13.07;2.42;;;;;;;6.37;100.00;100582.22;5015796;28;20045;-75
2023/12/26 06:26:17;;;;;;;5.45;1.20;;;;;;;6.35;100.00;100581.44;5003079;28;20190;-75
2023/12/26 06:29:02;;;;;;;9.82;1.48;;;;;;;6.32;100.00;100595.53;4993334;28;20747;-76
2023/12/26 06:31:48;;;;;;;4.72;1.23;;;;;;;6.32;100.00;100595.53;5000219;28;20064;-75
2023/12/26 06:34:33;;;;;;;7.45;1.35;;;;;;;6.30;100.00;100592.09;5013788;28;20351;-75
2023/12/26 06:37:18;;;;;;;10.60;1.73;;;;;;;6.31;100.00;100595.59;5018732;28;20053;-74
2023/12/26 06:40:05;;;;;;;8.27;1.60;;;;;;;6.32;100.00;100613.94;5008982;28;20061;-75
2023/12/26 06:42:50;;;;;;;9.32;2.00;;;;;;;6.33;100.00;100617.44;5010819;28;20077;-75
2023/12/26 06:45:36;;;;;;;13.45;2.13;;;;;;;6.32;100.00;100620.97;4984674;28;20041;-76
2023/12/26 06:48:22;;;;;;;10.50;1.60;;;;;;;6.30;100.00;100625.41;5017631;28;20049;-76
2023/12/26 06:51:07;;;;;;;8.80;1.45;;;;;;;6.31;100.00;100643.78;5004405;28;20769;-75
2023/12/26 06:53:52;;;;;;;5.07;1.20;;;;;;;6.31;100.00;100637.66;5000082;28;20274;-75
2023/12/26 06:56:38;;;;;;;5.10;1.85;;;;;;;6.31;100.00;100648.19;5007201;28;20046;-75
2023/12/26 06:59:24;;;;;;;10.50;1.70;;;;;;;6.30;100.00;100647.31;5020113;28;20060;-75
2023/12/26 07:02:09;;;;;;;6.43;1.67;;;;;;;6.29;100.00;100648.22;5015406;28;20377;-75
2023/12/26 07:05:02;;;;;;;13.82;1.92;;;;;;;6.29;100.00;100645.59;4986334;28;20049;-75
2023/12/26 07:07:48;;;;;;;9.18;1.80;;;;;;;6.29;100.00;100640.34;4995671;28;20060;-76
2023/12/26 07:10:33;;;;;;;8.48;1.67;;;;;;;6.30;100.00;100642.06;5012853;28;20050;-76
2023/12/26 07:13:19;;;;;;;7.93;2.17;;;;;;;6.28;100.00;100649.13;5013531;28;20053;-75
2023/12/26 07:16:05;;;;;;;6.85;1.42;;;;;;;6.25;100.00;100662.38;5012657;28;20053;-76
2023/12/26 07:18:58;;;;;;;8.60;1.70;;;;;;;6.24;100.00;100668.53;4996377;28;20128;-75
2023/12/26 07:21:43;;;;;;;8.00;1.77;;;;;;;6.25;100.00;100667.63;5016297;28;20049;-75
2023/12/26 07:24:29;;;;;;;12.27;1.42;;;;;;;6.28;100.00;100671.94;4994646;28;20072;-75
2023/12/26 07:27:14;;;;;;;11.77;1.83;;;;;;;6.27;100.00;100678.97;4993725;28;20050;-75
2023/12/26 07:30:00;;;;;;;8.90;1.80;;;;;;;6.27;100.00;100686.88;5011592;28;20046;-76
2023/12/26 07:32:45;;;;;;;11.18;1.98;;;;;;;6.27;100.00;100683.34;5013388;28;20144;-75
2023/12/26 07:35:31;;;;;;;5.13;1.40;;;;;;;6.30;100.00;100696.41;4996254;28;20058;-76
2023/12/26 07:38:18;;;;;;;11.18;1.80;;;;;;;6.32;100.00;100702.50;5008294;28;20609;-75
2023/12/26 07:41:04;;;;;;;10.48;1.50;;;;;;;6.37;100.00;100709.31;5012578;28;20049;-75
2023/12/26 07:43:51;;;;;;;11.30;1.75;;;;;;;6.42;100.00;100716.22;5014073;28;20048;-75
2023/12/26 07:46:36;;;;;;;9.02;1.52;;;;;;;6.47;100.00;100730.06;5012020;28;20068;-75
2023/12/26 07:49:22;;;;;;;9.95;1.38;;;;;;;6.46;100.00;100736.25;5010994;28;20192;-76
2023/12/26 07:52:10;;;;;;;8.50;1.52;;;;;;;6.49;100.00;100739.66;4997846;28;20075;-76
2023/12/26 07:54:56;;;;;;;11.05;2.00;;;;;;;6.53;100.00;100745.69;5011881;28;20466;-76
2023/12/26 07:57:41;;;;;;;6.35;1.33;;;;;;;6.54;100.00;100752.66;4991119;28;20053;-73
2023/12/26 08:00:26;;;;;;;8.27;1.70;;;;;;;6.53;100.00;100740.41;4993306;28;20493;-76
2023/12/26 08:03:15;;;;;;;7.45;1.38;;;;;;;6.55;100.00;100751.78;5011228;28;20531;-75
2023/12/26 08:06:01;;;;;;;8.98;1.70;;;;;;;6.56;100.00;100752.63;5013422;28;20152;-75
2023/12/26 08:08:53;;;;;;;11.73;1.98;;;;;;;6.55;100.00;100764.94;5000046;28;20047;-75
2023/12/26 08:11:41;;;;;;;9.15;1.63;;;;;;;6.54;100.00;100763.19;5012374;28;20057;-75
2023/12/26 08:14:26;;;;;;;6.13;1.30;;;;;;;6.55;100.00;100761.44;4990437;28;20567;-75
2023/12/26 08:17:12;;;;;;;8.05;1.65;;;;;;;6.56;100.00;100771.91;5014046;28;20049;-76
2023/12/26 08:19:57;;;;;;;7.50;1.63;;;;;;;6.59;100.00;100784.13;5014534;28;20985;-76
2023/12/26 08:22:43;;;;;;;7.90;1.65;;;;;;;6.61;100.00;100788.44;4999438;28;20156;-75
2023/12/26 08:25:28;;;;;;;5.57;1.67;;;;;;;6.66;100.00;100790.91;5008792;28;20633;-76
2023/12/26 08:28:14;;;;;;;8.98;1.60;;;;;;;6.69;100.00;100797.84;5012224;28;20057;-76
2023/12/26 08:30:59;;;;;;;9.20;2.05;;;;;;;6.73;100.00;100804.72;4989836;28;20500;-75
2023/12/26 08:33:45;;;;;;;8.20;1.83;;;;;;;6.75;100.00;100800.31;5005258;28;20064;-77
2023/12/26 08:36:30;;;;;;;6.28;1.77;;;;;;;6.76;100.00;100809.91;4984002;28;20065;-76
2023/12/26 08:39:16;;;;;;;12.18;1.70;;;;;;;6.78;100.00;100814.22;5010010;28;20053;-76
2023/12/26 08:42:01;;;;;;;13.98;1.80;;;;;;;6.77;100.00;100823.00;4993268;28;20100;-76
2023/12/26 08:44:47;;;;;;;8.57;1.63;;;;;;;6.79;100.00;100822.97;5004009;28;20059;-76
2023/12/26 08:47:32;;;;;;;8.00;2.05;;;;;;;6.76;100.00;100823.06;5010725;28;20050;-76
2023/12/26 08:50:18;;;;;;;7.10;1.70;;;;;;;6.72;100.00;100824.06;5010449;28;20069;-76
2023/12/26 08:53:03;;;;;;;11.20;1.27;;;;;;;6.67;100.00;100834.72;5012064;28;20339;-76
2023/12/26 08:55:49;;;;;;;8.27;1.52;;;;;;;6.63;100.00;100849.75;5013410;28;21105;-75
2023/12/26 08:58:35;;;;;;;6.65;1.80;;;;;;;6.63;100.00;100847.13;5012240;28;21138;-76
2023/12/26 09:01:20;;;;;;;11.52;1.60;;;;;;;6.63;100.00;100848.88;5011246;28;20042;-76
2023/12/26 09:04:06;;;;;;;7.35;2.47;;;;;;;6.63;100.00;100868.16;5009964;28;20534;-76
2023/12/26 09:06:53;;;;;;;9.70;1.95;;;;;;;6.62;100.00;100869.06;4998505;28;20073;-76
2023/12/26 09:09:40;;;;;;;7.25;1.67;;;;;;;6.62;100.00;100884.84;5000818;28;20080;-76
2023/12/26 09:12:26;;;;;;;9.95;2.00;;;;;;;6.66;100.00;100873.31;5004244;28;20054;-75
2023/12/26 09:15:11;;;;;;;8.30;1.75;;;;;;;6.71;100.00;100896.00;5010861;28;20049;-75
2023/12/26 09:17:58;;;;;;;9.35;1.83;;;;;;;6.73;100.00;100878.41;5003955;28;20053;-76
2023/12/26 09:20:43;;;;;;;9.90;2.20;;;;;;;6.77;100.00;100898.47;4994693;28;20049;-76
2023/12/26 09:23:29;;;;;;;6.32;2.22;;;;;;;6.77;100.00;100906.38;5009602;28;20057;-76
2023/12/26 09:26:20;;;;;;;9.23;1.85;;;;;;;6.75;100.00;100910.81;5006805;28;20413;-76
2023/12/26 09:29:05;;;;;;;5.70;1.83;;;;;;;6.75;100.00;100918.72;5008762;28;20520;-74
2023/12/26 09:31:53;;;;;;;10.07;2.30;;;;;;;6.74;100.00;100931.00;5011431;28;20492;-76
2023/12/26 09:34:41;;;;;;;9.10;1.92;;;;;;;6.73;100.00;100926.66;4996252;28;20583;-76
2023/12/26 09:37:27;;;;;;;8.52;1.65;;;;;;;6.76;100.00;100937.06;4996762;28;20060;-75
2023/12/26 09:40:12;;;;;;;6.53;1.73;;;;;;;6.76;100.00;100937.06;5010332;28;22230;-75
2023/12/26 09:43:01;;;;;;;9.38;2.25;;;;;;;6.77;100.00;100940.59;5009746;28;20137;-75
2023/12/26 09:45:47;;;;;;;6.38;2.22;;;;;;;6.78;100.00;100951.06;4995390;28;20048;-75
2023/12/26 09:48:33;;;;;;;12.18;2.80;;;;;;;6.86;100.00;100965.78;5008349;28;20061;-76
2023/12/26 09:51:21;;;;;;;8.80;1.95;;;;;;;6.93;100.00;100968.19;5008867;28;20060;-75
2023/12/26 09:54:08;;;;;;;12.10;2.55;;;;;;;6.99;100.00;100976.81;4989944;28;20594;-74
2023/12/26 09:56:53;;;;;;;6.55;1.73;;;;;;;7.01;100.00;100975.00;5002859;28;20097;-75
2023/12/26 09:59:40;;;;;;;11.07;2.25;;;;;;;7.05;100.00;100984.53;5008439;28;20519;-75
2023/12/26 10:02:25;;;;;;;6.90;2.38;;;;;;;7.07;100.00;100990.63;4981964;28;20243;-75
2023/12/26 10:05:11;;;;;;;6.40;1.60;;;;;;;7.09;100.00;100990.59;4997520;28;20185;-76
2023/12/26 10:07:56;;;;;;;8.98;2.03;;;;;;;7.09;100.00;100986.19;5009805;28;20462;-76
2023/12/26 10:10:42;;;;;;;13.60;2.15;;;;;;;7.07;100.00;100994.13;5000172;28;20064;-75
2023/12/26 10:13:42;;;;;;;7.55;1.92;;;;;;;7.06;100.00;100989.78;4998148;28;20124;-75
2023/12/26 10:16:27;;;;;;;7.38;2.10;;;;;;;7.07;100.00;101001.16;5013767;28;20084;-76
2023/12/26 10:19:13;;;;;;;10.02;2.30;;;;;;;7.07;100.00;100995.88;5012907;28;20073;-76
2023/12/26 10:21:59;;;;;;;7.93;1.60;;;;;;;7.06;100.00;100992.41;5010362;28;20053;-75
2023/12/26 10:24:45;;;;;;;10.32;1.83;;;;;;;7.09;100.00;101001.13;4987887;28;20057;-75
2023/12/26 10:27:31;;;;;;;9.82;1.88;;;;;;;7.10;100.00;100998.44;4991034;28;20057;-75
2023/12/26 10:30:20;;;;;;;10.63;1.95;;;;;;;7.13;100.00;101008.03;4978678;28;20041;-77
2023/12/26 10:33:05;;;;;;;8.68;1.70;;;;;;;7.16;100.00;101014.06;4999305;28;20829;-76
2023/12/26 10:36:03;;;;;;;8.90;1.48;;;;;;;7.18;100.00;101008.75;5002427;28;20091;-75
2023/12/26 10:38:48;;;;;;;7.13;1.58;;;;;;;7.22;100.00;101017.41;4988137;28;20524;-76
2023/12/26 10:41:34;;;;;;;11.90;2.13;;;;;;;7.22;100.00;101023.56;4992366;28;20527;-76
2023/12/26 10:44:20;;;;;;;9.88;1.70;;;;;;;7.22;100.00;101017.41;4996468;28;20080;-76
2023/12/26 10:47:05;;;;;;;4.90;1.20;;;;;;;7.24;100.00;101019.09;4999160;28;20069;-75
2023/12/26 10:49:55;;;;;;;10.40;2.13;;;;;;;7.29;100.00;101029.50;5010071;28;20920;-75
2023/12/26 10:55:48;;;;;;;8.30;1.88;;;;;;;7.34;100.00;101040.78;5010279;28;20045;-75
2023/12/26 10:58:34;;;;;;;6.55;1.90;;;;;;;7.36;100.00;101048.63;5012153;28;21017;-76
2023/12/26 13:52:12;;;;;;;4.45;1.10;;;;;;;6.41;100.00;101374.63;5008197;28;20149;-74
2023/12/26 13:55:35;;;;;;;3.00;1.00;;;;;;;6.35;100.00;101379.13;5009784;28;20049;-74
2023/12/26 13:58:58;;;;;;;3.58;0.82;;;;;;;6.27;100.00;101402.09;5006644;28;20060;-75
2023/12/26 14:02:21;;;;;;;10.63;1.30;;;;;;;6.22;100.00;101406.56;5012017;28;20057;-74
2023/12/26 14:05:44;;;;;;;1.25;0.60;;;;;;;6.22;100.00;101409.19;5009232;28;20049;-74
2023/12/26 14:09:07;;;;;;;1.85;0.90;;;;;;;6.23;100.00;101414.41;5011780;28;20049;-74
2023/12/26 14:12:30;;;;;;;4.10;0.90;;;;;;;6.20;100.00;101406.59;5013446;28;20500;-75
2023/12/26 14:15:53;;;;;;;1.65;0.90;;;;;;;6.16;100.00;101419.81;5008352;28;20060;-73
2023/12/26 14:19:16;;;;;;;2.63;1.10;;;;;;;6.10;100.00;101424.28;5008929;28;20064;-73
2023/12/26 14:22:39;;;;;;;4.90;1.10;;;;;;;6.07;100.00;101426.09;5008848;28;20049;-74
2023/12/26 14:26:02;;;;;;;3.33;0.80;;;;;;;6.03;100.00;101433.16;5009552;28;20139;-72
2023/12/26 14:29:25;;;;;;;3.95;1.13;;;;;;;5.99;100.00;101434.06;5013759;28;20815;-75
2023/12/26 14:32:48;;;;;;;6.13;1.17;;;;;;;5.95;100.00;101438.50;5014148;28;20053;-73
2023/12/26 14:36:11;;;;;;;6.05;1.17;;;;;;;5.90;100.00;101450.00;5013903;28;20061;-73
2023/12/26 14:39:35;;;;;;;5.38;1.23;;;;;;;5.85;100.00;101455.34;4986306;28;20129;-73
2023/12/26 14:42:58;;;;;;;1.95;0.80;;;;;;;5.78;100.00;101454.53;5002945;28;20594;-74
2023/12/26 14:46:21;;;;;;;3.15;0.88;;;;;;;5.74;100.00;101473.03;5006599;28;20082;-74
2023/12/26 14:49:45;;;;;;;5.78;1.25;;;;;;;5.68;100.00;101480.09;4980321;28;20434;-74
2023/12/26 14:53:08;;;;;;;7.38;2.50;;;;;;;5.68;100.00;101497.63;4995543;28;20603;-74
2023/12/26 14:56:32;;;;;;;2.03;1.15;;;;;;;5.69;100.00;101504.63;5001427;28;20087;-74
2023/12/26 14:59:55;;;;;;;1.48;1.10;;;;;;;5.70;100.00;101522.13;5007106;28;20038;-75
2023/12/26 15:02:40;;;;;;;2.92;0.98;;;;;;;5.69;100.00;101502.88;5008628;28;20172;-74
2023/12/26 15:05:26;;;;;;;4.85;1.08;;;;;;;5.67;100.00;101511.66;5011723;28;20530;-74
2023/12/26 15:08:11;;;;;;;4.35;1.45;;;;;;;5.63;100.00;101515.22;5008154;28;20045;-74
2023/12/26 15:10:56;;;;;;;6.57;1.90;;;;;;;5.56;100.00;101524.94;4992873;28;20053;-74
2023/12/26 15:13:42;;;;;;;4.13;1.23;;;;;;;5.48;100.00;101526.78;4998859;28;20571;-75
2023/12/26 15:16:27;;;;;;;5.93;1.30;;;;;;;5.40;100.00;101538.25;4977938;28;20258;-75
2023/12/26 15:19:13;;;;;;;7.50;1.40;;;;;;;5.33;100.00;101554.13;5007854;28;20054;-74
2023/12/26 15:21:58;;;;;;;4.78;1.00;;;;;;;5.27;100.00;101552.44;5010461;28;20155;-75
2023/12/26 15:24:44;;;;;;;4.03;1.73;;;;;;;5.20;100.00;101559.53;5001707;28;20648;-75
2023/12/26 15:27:32;;;;;;;6.93;1.42;;;;;;;5.15;100.00;101566.56;5003680;28;20085;-73
2023/12/26 15:30:17;;;;;;;9.30;1.35;;;;;;;5.10;100.00;101578.88;5011046;28;20538;-74
2023/12/26 15:33:03;;;;;;;5.85;1.25;;;;;;;5.04;100.00;101582.44;5007351;28;20060;-73
2023/12/26 15:35:51;;;;;;;5.32;1.15;;;;;;;5.00;100.00;101593.84;5005857;28;20061;-74
2023/12/26 15:38:36;;;;;;;3.65;1.73;;;;;;;4.95;100.00;101590.44;5010803;28;20088;-74
2023/12/26 15:41:27;;;;;;;8.35;1.70;;;;;;;4.89;100.00;101596.59;5013669;28;20072;-75
2023/12/26 15:44:12;;;;;;;5.57;1.98;;;;;;;4.86;100.00;101591.38;4998172;28;20061;-74
2023/12/26 15:46:57;;;;;;;8.57;2.10;;;;;;;4.84;100.00;101593.13;4989220;28;20140;-74
2023/12/26 15:49:43;;;;;;;6.70;1.60;;;;;;;4.82;100.00;101600.16;5006229;28;20167;-75
2023/12/26 15:52:28;;;;;;;4.07;1.40;;;;;;;4.82;100.00;101602.78;4997771;28;20053;-76
2023/12/26 15:55:14;;;;;;;5.30;1.13;;;;;;;4.83;100.00;101596.63;5008315;28;20500;-75
2023/12/26 15:57:59;;;;;;;8.38;1.33;;;;;;;4.82;100.00;101600.16;5014980;28;20048;-74